Aérodrome :
LOGIN :

S'inscrire | Disclaimer

   EN    FR    IT 

 










Légende :    VFR   VFR Marginal   IFR   IFR Intensif   IFR Très Intensif
Visi : 
Plafond : 
>= 8 km
>= 3000ft
5 à 8 km
1000 à 3000 ft
1500m à 5 km
500 à 1000 ft
800 à 1500m
200 à 500 ft
< 800m
< 200 ft
Symboles :   Orages  Brouillard  Fortes neiges  Fortes précipitations  Vent > 20 kt
SIGMETs :   Divers  Orages  Givrage  Turbulence  Onde Orograph.  Cendres Volcan.






- Altitude de l'aérodrome : 197 ft
- Code IATA : XOG


LFMO - Orange

DERNIER METAR :
  • 282200Z AUTO 27005KT 230V310 CAVOK 21/10 Q1019 NOSIG

METARs EXPIRÉS :
  • 282130Z AUTO 25003KT 200V280 CAVOK 21/10 Q1019 NOSIG
  • 282100Z AUTO 34008KT CAVOK 23/10 Q1019 NOSIG
  • 282030Z AUTO 34011KT CAVOK 23/09 Q1019 NOSIG
  • 282000Z AUTO 34010KT CAVOK 23/09 Q1019 NOSIG
  • 281930Z AUTO 35010KT CAVOK 24/08 Q1019 NOSIG

TAF TAF LFMO
Valide du 28 à 21h jusqu'au 29 à 21h UTC


282000Z 2821/2921 35012KT CAVOK
BECMG 2822/2824 VRB02KT
BECMG 2911/2913 22015KT
PROB30
TEMPO 2913/2917 4000 SHRA BKN060CB



MET'MAP, la Météo Aéronautique d'un coup d'oeil ! - Copyright ORBIFLY Décembre 2007 - Disclaimer

ORBIFLY MET'MAP TEAM :

Programmation & Développement : Alexandra Zaïnal
Sur une idée originale de : Baudouin d'Aumeries
Assistance à la programmation : Marc-Olivier Méhu
Soutien technique & logistique : Manuel Goepfert

Contact : metmap@orbifly.com




SOURCES & CREDITS :

   NOAA